createdAt,value
2023-03-12T00:01:23.633Z,1.50
2023-03-12T00:03:50.849Z,2.10
2023-03-12T00:06:18.403Z,2.10
2023-03-12T00:08:45.240Z,2.70
2023-03-12T00:11:15.404Z,2.20
2023-03-12T00:13:42.564Z,2.30
2023-03-12T00:16:16.223Z,2.50
2023-03-12T00:18:43.625Z,2.50
2023-03-12T00:21:10.544Z,3.30
2023-03-12T00:23:37.225Z,2.70
2023-03-12T00:26:06.798Z,3.00
2023-03-12T00:28:34.415Z,3.20
2023-03-12T00:31:02.747Z,3.30
2023-03-12T00:33:29.435Z,3.50
2023-03-12T00:35:59.251Z,3.60
2023-03-12T00:38:25.861Z,3.20
2023-03-12T00:40:52.429Z,3.30
2023-03-12T00:43:18.972Z,3.70
2023-03-12T00:45:45.563Z,3.80
2023-03-12T00:48:12.457Z,2.70
2023-03-12T00:50:39.149Z,3.30
2023-03-12T00:53:05.979Z,4.60
2023-03-12T00:55:32.617Z,3.30
2023-03-12T00:57:59.301Z,3.90
2023-03-12T01:00:26.068Z,3.20
2023-03-12T01:02:52.670Z,3.20
2023-03-12T01:05:19.357Z,2.90
2023-03-12T01:07:47.146Z,3.60
2023-03-12T01:10:16.194Z,3.50
2023-03-12T01:12:43.497Z,3.70
2023-03-12T01:15:13.860Z,3.70
2023-03-12T01:17:40.730Z,2.50
2023-03-12T01:20:09.336Z,3.10
2023-03-12T01:22:36.508Z,3.00
2023-03-12T01:25:03.372Z,3.00
2023-03-12T01:27:29.908Z,2.70
2023-03-12T01:29:56.591Z,2.60
2023-03-12T01:32:23.543Z,2.00
2023-03-12T01:34:50.068Z,2.60
2023-03-12T01:37:16.730Z,3.00
2023-03-12T01:39:43.549Z,3.00
2023-03-12T01:42:10.170Z,2.70
2023-03-12T01:45:30.930Z,2.90
2023-03-12T01:47:57.693Z,2.70
2023-03-12T01:50:24.615Z,2.70
2023-03-12T01:52:51.509Z,2.60
2023-03-12T01:55:18.146Z,2.80
2023-03-12T01:57:57.216Z,2.40
2023-03-12T02:00:26.529Z,1.90
2023-03-12T02:02:59.404Z,2.80
2023-03-12T02:05:26.422Z,1.70
2023-03-12T02:07:53.519Z,2.90
2023-03-12T02:10:21.564Z,1.40
2023-03-12T02:12:48.337Z,1.80
2023-03-12T02:15:15.324Z,1.80
2023-03-12T02:17:42.129Z,1.80
2023-03-12T02:20:24.922Z,1.40
2023-03-12T02:23:02.316Z,1.60
2023-03-12T02:25:41.923Z,1.30
2023-03-12T02:28:13.154Z,1.50
2023-03-12T02:30:42.593Z,1.10
2023-03-12T02:33:09.996Z,1.70
2023-03-12T02:35:37.761Z,1.30
2023-03-12T02:38:35.728Z,1.60
2023-03-12T02:41:22.381Z,1.30
2023-03-12T02:43:56.319Z,1.40
2023-03-12T02:46:23.246Z,1.20
2023-03-12T02:48:52.033Z,1.40
2023-03-12T02:51:18.799Z,1.10
2023-03-12T02:53:46.103Z,1.10
2023-03-12T02:56:12.850Z,1.30
2023-03-12T02:58:39.334Z,1.30
2023-03-12T03:01:05.913Z,0.80
2023-03-12T03:03:32.685Z,1.00
2023-03-12T03:05:59.256Z,1.20
2023-03-12T03:08:26.090Z,0.80
2023-03-12T03:10:53.566Z,1.00
2023-03-12T03:13:20.188Z,1.00
2023-03-12T03:15:47.119Z,0.80
2023-03-12T03:18:14.111Z,1.30
2023-03-12T03:20:40.626Z,0.70
2023-03-12T03:23:07.321Z,1.00
2023-03-12T03:25:34.276Z,0.90
2023-03-12T03:28:01.003Z,0.80
2023-03-12T03:30:27.713Z,1.00
2023-03-12T03:32:54.697Z,0.70
2023-03-12T03:35:21.957Z,0.70
2023-03-12T03:37:48.794Z,1.10
2023-03-12T03:40:15.664Z,1.20
2023-03-12T03:42:42.485Z,0.90
2023-03-12T03:45:10.356Z,1.50
2023-03-12T03:47:37.488Z,1.20
2023-03-12T03:50:05.635Z,1.40
2023-03-12T03:52:33.086Z,1.40
2023-03-12T03:55:00.222Z,1.80
2023-03-12T03:57:27.927Z,1.50
2023-03-12T03:59:55.857Z,0.80
2023-03-12T04:02:22.625Z,0.90
2023-03-12T04:04:50.200Z,1.40
2023-03-12T04:07:17.544Z,1.10
2023-03-12T04:09:44.353Z,1.10
2023-03-12T04:12:11.252Z,0.80
2023-03-12T04:14:40.554Z,0.70
2023-03-12T04:17:07.932Z,1.00
2023-03-12T04:19:34.913Z,0.90
2023-03-12T04:22:02.823Z,1.20
2023-03-12T04:24:30.222Z,0.90
2023-03-12T04:26:57.384Z,1.30
2023-03-12T04:29:24.400Z,1.00
2023-03-12T04:31:52.348Z,1.00
2023-03-12T04:34:19.274Z,0.70
2023-03-12T04:36:47.037Z,0.90
2023-03-12T04:39:18.743Z,0.90
2023-03-12T04:41:47.349Z,1.50
2023-03-12T04:44:15.721Z,1.10
2023-03-12T04:46:42.879Z,0.80
2023-03-12T04:49:11.360Z,0.70
2023-03-12T04:51:38.862Z,0.90
2023-03-12T04:54:05.548Z,1.10
2023-03-12T04:56:33.299Z,1.10
2023-03-12T04:59:00.419Z,1.00
2023-03-12T05:01:30.238Z,1.00
2023-03-12T05:03:56.868Z,0.70
2023-03-12T05:06:24.586Z,0.70
2023-03-12T05:08:51.525Z,1.00
2023-03-12T05:11:18.711Z,0.80
2023-03-12T05:13:45.753Z,0.90
2023-03-12T05:16:13.994Z,0.80
2023-03-12T05:18:41.915Z,1.00
2023-03-12T05:21:14.985Z,1.10
2023-03-12T05:23:42.950Z,0.80
2023-03-12T05:26:16.484Z,0.90
2023-03-12T05:28:43.255Z,0.60
2023-03-12T05:31:12.384Z,0.80
2023-03-12T05:33:39.565Z,0.80
2023-03-12T05:36:07.084Z,0.80
2023-03-12T05:38:34.160Z,0.90
2023-03-12T05:41:01.692Z,0.50
2023-03-12T05:43:29.170Z,0.60
2023-03-12T05:46:04.471Z,0.90
2023-03-12T05:48:31.477Z,0.70
2023-03-12T05:50:58.162Z,1.40
2023-03-12T05:53:25.036Z,0.80
2023-03-12T05:55:52.576Z,1.30
2023-03-12T05:58:19.329Z,0.70
2023-03-12T06:00:46.061Z,0.60
2023-03-12T06:03:13.789Z,0.90
2023-03-12T06:05:43.797Z,0.70
2023-03-12T06:08:10.552Z,1.10
2023-03-12T06:10:38.629Z,0.50
2023-03-12T06:13:06.093Z,1.50
2023-03-12T06:15:32.979Z,0.70
2023-03-12T06:18:00.437Z,0.70
2023-03-12T06:20:27.186Z,0.50
2023-03-12T06:22:53.972Z,0.50
2023-03-12T06:25:20.752Z,0.70
2023-03-12T06:27:47.282Z,0.50
2023-03-12T06:30:14.753Z,0.60
2023-03-12T06:32:41.613Z,0.80
2023-03-12T06:35:08.459Z,0.40
2023-03-12T06:37:35.310Z,0.60
2023-03-12T06:40:04.353Z,0.90
2023-03-12T06:42:31.725Z,0.90
2023-03-12T06:44:58.403Z,0.60
2023-03-12T06:47:25.348Z,1.30
2023-03-12T06:49:52.064Z,0.80
2023-03-12T06:52:18.761Z,0.80
2023-03-12T06:54:45.329Z,0.90
2023-03-12T06:57:11.950Z,0.80
2023-03-12T06:59:38.888Z,1.40
2023-03-12T07:02:06.018Z,1.50
2023-03-12T07:04:32.528Z,1.00
2023-03-12T07:06:59.798Z,1.30
2023-03-12T07:09:26.645Z,0.90
2023-03-12T07:11:53.216Z,0.70
2023-03-12T07:14:20.985Z,1.20
2023-03-12T07:16:47.933Z,0.50
2023-03-12T07:19:14.870Z,0.50
2023-03-12T07:21:41.502Z,0.80
2023-03-12T07:24:08.762Z,0.40
2023-03-12T07:26:35.554Z,0.50
2023-03-12T07:29:04.290Z,0.40
2023-03-12T07:31:30.960Z,0.40
2023-03-12T07:33:57.764Z,0.50
2023-03-12T07:36:24.727Z,0.60
2023-03-12T07:38:51.665Z,0.40
2023-03-12T07:41:18.422Z,0.30
2023-03-12T07:43:45.135Z,0.50
2023-03-12T07:46:12.226Z,0.40
2023-03-12T07:48:39.825Z,0.40
2023-03-12T07:51:07.779Z,0.30
2023-03-12T07:53:34.621Z,0.30
2023-03-12T07:56:01.426Z,0.30
2023-03-12T07:58:28.244Z,0.30
2023-03-12T08:00:55.942Z,0.50
2023-03-12T08:03:22.917Z,0.40
2023-03-12T08:05:58.338Z,0.30
2023-03-12T08:08:25.588Z,0.40
2023-03-12T08:10:52.509Z,0.50
2023-03-12T08:13:19.288Z,0.40
2023-03-12T08:15:46.539Z,0.40
2023-03-12T08:18:13.135Z,0.50
2023-03-12T08:20:39.775Z,0.40
2023-03-12T08:23:06.367Z,0.90
2023-03-12T08:25:32.914Z,0.40
2023-03-12T08:27:59.545Z,0.50
2023-03-12T08:30:29.066Z,0.40
2023-03-12T08:32:57.511Z,0.40
2023-03-12T08:35:24.305Z,0.20
2023-03-12T08:37:50.897Z,0.30
2023-03-12T08:40:18.136Z,0.40
2023-03-12T08:42:44.861Z,0.20
2023-03-12T08:45:12.780Z,0.30
2023-03-12T08:47:41.036Z,0.20
2023-03-12T08:50:09.581Z,0.20
2023-03-12T08:52:36.280Z,0.20
2023-03-12T08:55:02.977Z,0.20
2023-03-12T08:57:29.585Z,0.10
2023-03-12T08:59:56.187Z,0.20
2023-03-12T09:02:22.892Z,0.20
2023-03-12T09:04:50.159Z,0.10
2023-03-12T09:07:17.915Z,0.20
2023-03-12T09:09:44.732Z,0.20
2023-03-12T09:12:11.456Z,0.30
2023-03-12T09:17:24.791Z,0.20
2023-03-12T09:19:51.533Z,0.40
2023-03-12T09:22:18.230Z,0.30
2023-03-12T09:24:44.890Z,0.20
2023-03-12T09:27:11.614Z,0.40
2023-03-12T09:29:49.654Z,0.40
2023-03-12T09:32:20.227Z,0.40
2023-03-12T09:34:46.852Z,0.30
2023-03-12T09:37:13.311Z,0.30
2023-03-12T09:39:40.037Z,0.20
2023-03-12T09:42:20.017Z,0.20
2023-03-12T09:44:48.128Z,0.20
2023-03-12T09:47:29.273Z,0.10
2023-03-12T09:50:19.113Z,0.30
2023-03-12T09:52:53.092Z,0.20
2023-03-12T09:55:21.439Z,0.20
2023-03-12T09:57:50.730Z,0.20
2023-03-12T10:00:21.094Z,0.20
2023-03-12T10:03:12.247Z,0.60
2023-03-12T10:05:44.886Z,0.20
2023-03-12T10:08:47.115Z,0.10
2023-03-12T10:11:25.679Z,0.10
2023-03-12T10:13:57.645Z,0.20
2023-03-12T10:16:51.243Z,0.20
2023-03-12T10:19:44.726Z,0.20
2023-03-12T10:22:26.139Z,0.10
2023-03-12T10:25:12.985Z,0.10
2023-03-12T10:27:40.594Z,0.20
2023-03-12T10:30:19.523Z,0.10
2023-03-12T10:32:55.200Z,0.10
2023-03-12T10:35:24.202Z,0.20
2023-03-12T10:37:56.313Z,0.10
2023-03-12T10:40:25.907Z,0.20
2023-03-12T10:42:52.889Z,0.30
2023-03-12T10:45:31.883Z,0.20
2023-03-12T10:48:03.256Z,0.10
2023-03-12T10:50:32.917Z,0.10
2023-03-12T10:53:29.291Z,0.40
2023-03-12T10:56:07.503Z,0.20
2023-03-12T10:58:41.055Z,0.10
2023-03-12T11:01:24.419Z,0.10
2023-03-12T11:03:53.344Z,0.10
2023-03-12T11:06:30.134Z,0.10
2023-03-12T11:09:17.213Z,0.20
2023-03-12T11:11:49.304Z,0.20
2023-03-12T11:14:25.941Z,0.10
2023-03-12T11:16:56.099Z,0.10
2023-03-12T11:19:34.572Z,0.10
2023-03-12T11:22:04.661Z,0.10
2023-03-12T11:24:38.802Z,0.10
2023-03-12T11:27:27.946Z,0.20
2023-03-12T11:29:54.830Z,0.10
2023-03-12T11:32:40.602Z,0.20
2023-03-12T11:35:20.488Z,0.10
2023-03-12T11:37:47.905Z,0.10
2023-03-12T11:40:51.364Z,0.10
2023-03-12T11:43:36.229Z,0.10
2023-03-12T11:46:23.714Z,0.10
2023-03-12T11:49:12.156Z,0.10
2023-03-12T11:52:20.873Z,0.10
2023-03-12T11:55:02.797Z,0.30
2023-03-12T11:57:41.519Z,0.10
2023-03-12T12:00:16.789Z,0.10
2023-03-12T12:03:15.070Z,0.10
2023-03-12T12:06:03.957Z,0.10
2023-03-12T12:08:30.653Z,0.10
2023-03-12T12:11:09.238Z,0.10
2023-03-12T12:14:10.775Z,0.10
2023-03-12T12:17:03.728Z,0.10
2023-03-12T12:19:50.020Z,0.20
2023-03-12T12:22:31.672Z,0.10
2023-03-12T12:25:17.997Z,0.10
2023-03-12T12:27:56.593Z,0.10
2023-03-12T12:30:46.372Z,0.10
2023-03-12T12:33:40.804Z,0.20
2023-03-12T12:36:11.573Z,0.10
2023-03-12T12:39:00.754Z,0.10
2023-03-12T12:41:35.150Z,0.10
2023-03-12T12:44:06.286Z,0.10
2023-03-12T12:46:41.676Z,0.20
2023-03-12T12:49:13.188Z,0.10
2023-03-12T12:51:47.040Z,0.00
2023-03-12T12:55:00.282Z,0.20
2023-03-12T12:57:28.521Z,0.20
2023-03-12T13:00:29.136Z,0.30
2023-03-12T13:02:56.709Z,0.10
2023-03-12T13:05:28.705Z,0.20
2023-03-12T13:07:55.450Z,0.20
2023-03-12T13:10:34.327Z,0.20
2023-03-12T13:13:09.062Z,0.20
2023-03-12T13:15:40.191Z,0.20
2023-03-12T13:18:17.211Z,0.10
2023-03-12T13:21:04.837Z,0.20
2023-03-12T13:23:34.495Z,0.10
2023-03-12T13:26:25.635Z,0.30
2023-03-12T13:28:56.752Z,0.20
2023-03-12T13:31:26.481Z,0.20
2023-03-12T13:34:18.048Z,0.10
2023-03-12T13:36:53.142Z,0.10
2023-03-12T13:39:28.336Z,0.20
2023-03-12T13:41:59.072Z,0.20
2023-03-12T13:44:25.707Z,0.20
2023-03-12T13:47:15.639Z,0.20
2023-03-12T13:49:46.937Z,0.20
2023-03-12T13:52:13.759Z,0.10
2023-03-12T13:54:45.305Z,0.20
2023-03-12T13:57:24.293Z,0.20
2023-03-12T13:59:52.435Z,0.10
2023-03-12T14:02:28.096Z,0.20
2023-03-12T14:05:03.698Z,0.10
2023-03-12T14:07:47.016Z,0.20
2023-03-12T14:10:35.578Z,0.20
2023-03-12T14:13:39.181Z,0.10
2023-03-12T14:16:16.034Z,0.10
2023-03-12T14:18:44.881Z,0.20
2023-03-12T14:21:15.975Z,0.40
2023-03-12T14:23:52.089Z,0.20
2023-03-12T14:26:23.981Z,0.10
2023-03-12T14:28:59.656Z,0.20
2023-03-12T14:31:29.561Z,0.10
2023-03-12T14:34:01.605Z,0.20
2023-03-12T14:37:05.287Z,0.20
2023-03-12T14:39:36.584Z,0.40
2023-03-12T14:42:07.254Z,0.30
2023-03-12T14:44:36.698Z,1.10
2023-03-12T14:47:11.329Z,0.40
2023-03-12T14:49:43.633Z,0.50
2023-03-12T14:52:22.052Z,0.20
2023-03-12T14:55:02.477Z,0.20
2023-03-12T14:57:29.600Z,0.10
2023-03-12T14:59:58.143Z,0.10
2023-03-12T15:02:26.526Z,0.20
2023-03-12T15:04:56.041Z,0.20
2023-03-12T15:07:28.824Z,0.20
2023-03-12T15:09:55.798Z,0.20
2023-03-12T15:12:32.924Z,0.40
2023-03-12T15:15:06.538Z,0.30
2023-03-12T15:17:34.881Z,0.40
2023-03-12T15:20:09.793Z,0.30
2023-03-12T15:22:37.230Z,0.50
2023-03-12T15:25:27.602Z,0.60
2023-03-12T15:28:01.244Z,0.20
2023-03-12T15:30:28.625Z,0.30
2023-03-12T15:33:08.816Z,0.20
2023-03-12T15:35:57.969Z,0.30
2023-03-12T15:38:25.632Z,0.20
2023-03-12T15:40:56.336Z,0.20
2023-03-12T15:43:25.008Z,0.10
2023-03-12T15:46:00.315Z,0.70
2023-03-12T15:48:37.766Z,0.40
2023-03-12T15:51:13.517Z,0.20
2023-03-12T15:53:40.243Z,0.20
2023-03-12T15:56:09.694Z,0.30
2023-03-12T15:58:41.233Z,0.30
2023-03-12T16:01:16.573Z,0.20
2023-03-12T16:03:48.088Z,0.20
2023-03-12T16:06:17.697Z,0.20
2023-03-12T16:08:48.409Z,0.30
2023-03-12T16:11:18.583Z,0.30
2023-03-12T16:13:47.858Z,0.30
2023-03-12T16:16:15.032Z,0.80
2023-03-12T16:18:42.991Z,0.30
2023-03-12T16:21:10.686Z,0.40
2023-03-12T16:23:37.436Z,0.50
2023-03-12T16:26:04.958Z,0.40
2023-03-12T16:28:34.765Z,1.00
2023-03-12T16:31:02.042Z,1.10
2023-03-12T16:33:28.824Z,1.50
2023-03-12T16:35:56.007Z,1.90
2023-03-12T16:38:22.763Z,1.90
2023-03-12T16:40:51.513Z,1.90
2023-03-12T16:43:24.188Z,2.70
2023-03-12T16:45:52.805Z,1.50
2023-03-12T16:48:22.463Z,1.20
2023-03-12T16:50:52.088Z,1.30
2023-03-12T16:53:21.526Z,1.10
2023-03-12T16:56:01.045Z,0.90
2023-03-12T16:58:31.236Z,1.80
2023-03-12T17:01:01.539Z,1.40
2023-03-12T17:03:35.679Z,1.70
2023-03-12T17:06:04.754Z,1.90
2023-03-12T17:08:31.430Z,1.30
2023-03-12T17:10:59.817Z,1.10
2023-03-12T17:13:28.181Z,1.20
2023-03-12T17:15:55.663Z,1.40
2023-03-12T17:18:22.695Z,1.60
2023-03-12T17:20:51.097Z,2.60
2023-03-12T17:23:19.208Z,2.90
2023-03-12T17:25:46.552Z,3.70
2023-03-12T17:28:14.674Z,3.00
2023-03-12T17:30:42.023Z,4.50
2023-03-12T17:33:12.225Z,4.00
2023-03-12T17:35:39.472Z,5.40
2023-03-12T17:38:06.794Z,5.40
2023-03-12T17:40:35.077Z,6.80
2023-03-12T17:43:01.737Z,8.30
2023-03-12T17:45:28.348Z,6.10
2023-03-12T17:47:55.027Z,5.80
2023-03-12T17:50:21.744Z,6.10
2023-03-12T17:52:48.587Z,5.80
2023-03-12T17:55:15.397Z,5.40
2023-03-12T17:57:44.115Z,5.00
2023-03-12T18:00:12.216Z,6.20
2023-03-12T18:02:41.710Z,5.50
2023-03-12T18:05:10.687Z,5.20
2023-03-12T18:07:38.089Z,4.40
2023-03-12T18:10:10.615Z,5.10
2023-03-12T18:12:38.417Z,5.20
2023-03-12T18:15:12.572Z,5.10
2023-03-12T18:17:40.523Z,4.70
2023-03-12T18:20:09.177Z,5.50
2023-03-12T18:22:38.395Z,6.00
2023-03-12T18:25:06.742Z,6.30
2023-03-12T18:27:33.446Z,5.50
2023-03-12T18:30:00.338Z,5.40
2023-03-12T18:32:27.213Z,4.90
2023-03-12T18:34:54.301Z,5.20
2023-03-12T18:37:22.511Z,5.90
2023-03-12T18:39:49.185Z,5.30
2023-03-12T18:42:16.136Z,5.30
2023-03-12T18:44:43.325Z,4.50
2023-03-12T18:47:10.174Z,4.90
2023-03-12T18:49:37.059Z,5.40
2023-03-12T18:52:04.100Z,6.90
2023-03-12T18:54:33.009Z,4.50
2023-03-12T18:57:00.034Z,4.20
2023-03-12T18:59:28.131Z,4.60
2023-03-12T19:01:54.994Z,4.50
2023-03-12T19:04:21.748Z,4.80
2023-03-12T19:14:21.986Z,4.80
2023-03-12T19:16:49.252Z,4.40
2023-03-12T19:19:16.589Z,4.50
2023-03-12T19:21:43.639Z,5.40
2023-03-12T19:24:10.668Z,5.00
2023-03-12T19:26:37.387Z,5.30
2023-03-12T19:29:04.110Z,3.90
2023-03-12T19:31:30.742Z,4.00
2023-03-12T19:33:57.281Z,3.50
2023-03-12T19:36:24.409Z,3.40
2023-03-12T19:38:51.124Z,3.10
2023-03-12T19:41:17.779Z,3.40
2023-03-12T19:43:44.758Z,3.80
2023-03-12T19:46:11.840Z,4.60
2023-03-12T19:48:38.611Z,3.50
2023-03-12T19:51:10.880Z,4.00
2023-03-12T19:53:38.107Z,3.80
2023-03-12T19:56:05.307Z,3.80
2023-03-12T19:58:32.198Z,4.30
2023-03-12T20:01:00.395Z,5.10
2023-03-12T20:03:29.201Z,5.50
2023-03-12T20:05:56.372Z,5.00
2023-03-12T20:08:27.373Z,5.40
2023-03-12T20:11:02.015Z,5.10
2023-03-12T20:13:29.016Z,4.70
2023-03-12T20:15:56.275Z,5.20
2023-03-12T20:18:23.244Z,5.40
2023-03-12T20:20:50.148Z,5.90
2023-03-12T20:23:17.294Z,5.90
2023-03-12T20:25:48.292Z,6.60
2023-03-12T20:28:15.376Z,6.00
2023-03-12T20:30:42.487Z,6.40
2023-03-12T20:33:09.554Z,6.90
2023-03-12T20:35:36.614Z,7.80
2023-03-12T20:38:03.753Z,6.40
2023-03-12T20:40:30.722Z,8.20
2023-03-12T20:42:57.421Z,10.40
2023-03-12T20:45:24.149Z,9.10
2023-03-12T20:47:51.054Z,9.20
2023-03-12T20:50:17.974Z,9.30
2023-03-12T20:52:44.747Z,10.40
2023-03-12T20:55:11.591Z,9.50
2023-03-12T20:57:38.294Z,9.10
2023-03-12T21:00:05.712Z,10.10
2023-03-12T21:02:32.984Z,10.60
2023-03-12T21:04:59.754Z,9.90
2023-03-12T21:07:26.347Z,9.10
2023-03-12T21:09:53.304Z,9.40
2023-03-12T21:12:20.260Z,7.50
2023-03-12T21:14:47.245Z,8.30
2023-03-12T21:17:14.831Z,7.20
2023-03-12T21:19:42.135Z,8.30
2023-03-12T21:22:09.065Z,6.70
2023-03-12T21:24:36.053Z,7.50
2023-03-12T21:27:03.020Z,6.40
2023-03-12T21:29:29.567Z,5.70
2023-03-12T21:31:56.919Z,8.10
2023-03-12T21:34:23.635Z,6.70
2023-03-12T21:36:50.348Z,8.10
2023-03-12T21:39:17.404Z,7.20
2023-03-12T21:41:44.175Z,5.80
2023-03-12T21:44:10.756Z,6.80
2023-03-12T21:46:37.503Z,6.20
2023-03-12T21:49:04.161Z,5.00
2023-03-12T21:51:30.763Z,4.50
2023-03-12T21:53:57.906Z,5.50
2023-03-12T21:56:27.573Z,4.80
2023-03-12T21:58:57.284Z,5.70
2023-03-12T22:01:24.432Z,5.30
2023-03-12T22:03:51.553Z,5.00
2023-03-12T22:06:19.169Z,4.20
2023-03-12T22:08:49.319Z,5.40
2023-03-12T22:11:16.270Z,5.00
2023-03-12T22:13:43.287Z,4.60
2023-03-12T22:16:12.453Z,4.90
2023-03-12T22:18:42.151Z,4.60
2023-03-12T22:21:20.279Z,4.00
2023-03-12T22:23:50.245Z,4.10
2023-03-12T22:26:18.358Z,3.50
2023-03-12T22:28:50.202Z,4.80
2023-03-12T22:31:18.937Z,3.70
2023-03-12T22:33:45.738Z,2.50
2023-03-12T22:36:14.838Z,4.00
2023-03-12T22:38:41.804Z,2.80
2023-03-12T22:41:12.367Z,3.20
2023-03-12T22:43:39.159Z,3.00
2023-03-12T22:46:05.942Z,3.80
2023-03-12T22:48:32.599Z,3.90
2023-03-12T22:50:59.132Z,3.50
2023-03-12T22:53:25.923Z,3.10
2023-03-12T22:56:00.419Z,2.30
2023-03-12T22:58:28.487Z,3.20
2023-03-12T23:01:02.939Z,2.90
2023-03-12T23:03:30.926Z,3.00
2023-03-12T23:05:58.214Z,2.70
2023-03-12T23:08:25.637Z,2.50
2023-03-12T23:11:01.974Z,3.00
2023-03-12T23:13:31.287Z,2.40
2023-03-12T23:16:19.238Z,2.90
2023-03-12T23:18:46.853Z,2.90
2023-03-12T23:21:16.913Z,2.70
2023-03-12T23:23:44.307Z,2.80
2023-03-12T23:26:16.945Z,3.30
2023-03-12T23:28:46.174Z,2.80
2023-03-12T23:31:15.068Z,3.00
2023-03-12T23:33:41.765Z,2.20
2023-03-12T23:36:12.721Z,2.60
2023-03-12T23:38:39.527Z,2.10
2023-03-12T23:41:20.916Z,2.00
2023-03-12T23:43:48.284Z,1.70
2023-03-12T23:46:16.376Z,1.80
2023-03-12T23:48:43.778Z,2.00
2023-03-12T23:51:16.407Z,1.40
2023-03-12T23:53:45.782Z,1.30
2023-03-12T23:56:14.976Z,1.40
2023-03-12T23:58:43.290Z,0.90
